createdAt,value
2022-12-16T00:01:22.457Z,81.55
2022-12-16T00:11:22.211Z,81.57
2022-12-16T00:21:24.090Z,81.59
2022-12-16T00:31:24.238Z,81.50
2022-12-16T00:41:24.308Z,81.56
2022-12-16T00:51:24.306Z,81.57
2022-12-16T01:01:24.393Z,81.60
2022-12-16T01:11:24.301Z,81.60
2022-12-16T01:21:24.259Z,81.59
2022-12-16T01:31:24.392Z,81.60
2022-12-16T01:41:24.312Z,81.65
2022-12-16T01:51:24.317Z,81.56
2022-12-16T02:01:24.469Z,81.61
2022-12-16T02:11:24.388Z,81.55
2022-12-16T02:21:24.329Z,81.54
2022-12-16T02:31:26.851Z,81.49
2022-12-16T02:41:26.400Z,81.57
2022-12-16T02:51:26.568Z,81.58
2022-12-16T03:01:27.124Z,81.65
2022-12-16T03:11:27.390Z,81.59
2022-12-16T03:21:27.369Z,81.61
2022-12-16T03:31:27.401Z,81.66
2022-12-16T03:41:27.417Z,81.60
2022-12-16T03:51:27.413Z,81.55
2022-12-16T04:01:27.612Z,81.49
2022-12-16T04:11:45.518Z,81.57
2022-12-16T04:22:03.626Z,81.58
2022-12-16T04:32:03.444Z,81.58
2022-12-16T04:42:21.755Z,81.58
2022-12-16T04:52:39.861Z,81.53
2022-12-16T05:02:57.633Z,81.53
2022-12-16T05:13:15.743Z,81.50
2022-12-16T05:23:34.251Z,81.49
2022-12-16T05:33:53.184Z,81.49
2022-12-16T05:44:11.839Z,81.51
2022-12-16T05:54:29.839Z,81.46
2022-12-16T06:04:47.794Z,81.29
2022-12-16T06:15:05.816Z,81.32
2022-12-16T06:25:30.916Z,81.43
2022-12-16T06:35:48.936Z,81.43
2022-12-16T06:46:06.947Z,81.33
2022-12-16T06:56:25.180Z,81.37
2022-12-16T07:06:43.976Z,81.42
2022-12-16T07:17:02.085Z,81.39
2022-12-16T07:27:20.838Z,81.37
2022-12-16T07:37:38.900Z,81.37
2022-12-16T07:47:56.982Z,81.25
2022-12-16T07:58:15.009Z,81.21
2022-12-16T08:08:32.778Z,81.05
2022-12-16T08:18:50.608Z,80.93
2022-12-16T08:29:42.092Z,80.84
2022-12-16T08:39:35.247Z,80.68
2022-12-16T08:49:56.146Z,80.40
2022-12-16T09:00:13.977Z,80.22
2022-12-16T09:10:37.556Z,77.36
2022-12-16T09:20:52.277Z,74.22
2022-12-16T09:31:11.312Z,76.81
2022-12-16T09:41:29.986Z,77.35
2022-12-16T09:51:48.094Z,77.66
2022-12-16T10:02:06.050Z,74.49
2022-12-16T10:12:24.164Z,71.46
2022-12-16T10:22:43.150Z,75.06
2022-12-16T10:33:00.943Z,73.96
2022-12-16T10:43:38.709Z,75.77
2022-12-16T10:54:16.655Z,70.38
2022-12-16T11:04:46.205Z,75.18
2022-12-16T11:15:28.244Z,76.09
2022-12-16T11:25:25.250Z,76.34
2022-12-16T11:35:43.181Z,76.46
2022-12-16T11:46:02.348Z,76.56
2022-12-16T11:56:20.991Z,76.81
2022-12-16T12:06:39.204Z,76.92
2022-12-16T12:16:58.408Z,76.89
2022-12-16T12:27:20.180Z,76.84
2022-12-16T12:37:38.357Z,76.83
2022-12-16T12:47:56.131Z,76.96
2022-12-16T12:58:14.514Z,77.08
2022-12-16T13:08:33.285Z,77.11
2022-12-16T13:18:51.176Z,77.14
2022-12-16T13:29:23.732Z,77.30
2022-12-16T13:39:42.307Z,77.37
2022-12-16T13:50:00.626Z,77.39
2022-12-16T14:00:36.442Z,77.44
2022-12-16T14:10:53.292Z,77.52
2022-12-16T14:21:11.477Z,77.65
2022-12-16T14:31:29.838Z,77.84
2022-12-16T14:41:48.274Z,78.09
2022-12-16T14:52:06.463Z,78.25
2022-12-16T15:02:24.784Z,78.51
2022-12-16T15:12:43.107Z,78.72
2022-12-16T15:23:01.329Z,79.02
2022-12-16T15:33:19.358Z,79.28
2022-12-16T15:43:37.629Z,79.46
2022-12-16T15:53:56.487Z,79.58
2022-12-16T16:04:14.349Z,79.64
2022-12-16T16:14:32.537Z,79.77
2022-12-16T16:24:50.599Z,79.92
2022-12-16T16:35:08.511Z,80.09
2022-12-16T16:45:27.339Z,80.07
2022-12-16T16:55:45.501Z,80.33
2022-12-16T17:06:03.701Z,80.15
2022-12-16T17:16:22.653Z,80.51
2022-12-16T17:26:41.606Z,80.84
2022-12-16T17:36:59.501Z,81.08
2022-12-16T17:47:17.691Z,81.13
2022-12-16T17:57:35.574Z,81.29
2022-12-16T18:07:53.610Z,81.46
2022-12-16T18:18:11.413Z,81.64
2022-12-16T18:28:29.711Z,81.70
2022-12-16T18:38:47.580Z,81.81
2022-12-16T18:49:05.880Z,81.93
2022-12-16T18:59:24.671Z,81.96
2022-12-16T19:09:42.609Z,82.00
2022-12-16T19:20:00.894Z,82.14
2022-12-16T19:30:19.623Z,82.18
2022-12-16T19:40:37.791Z,82.07
2022-12-16T19:50:56.288Z,82.20
2022-12-16T20:01:14.792Z,82.17
2022-12-16T20:11:35.742Z,82.00
2022-12-16T20:21:56.392Z,82.06
2022-12-16T20:32:13.939Z,82.03
2022-12-16T20:42:32.801Z,82.07
2022-12-16T20:52:51.014Z,82.15
2022-12-16T21:03:09.738Z,82.03
2022-12-16T21:13:27.762Z,82.15
2022-12-16T21:23:46.084Z,82.19
2022-12-16T21:34:04.548Z,82.24
2022-12-16T21:44:22.549Z,82.14
2022-12-16T21:54:40.919Z,82.23
2022-12-16T22:04:58.982Z,82.25
2022-12-16T22:15:17.927Z,82.20
2022-12-16T22:25:35.950Z,82.21
2022-12-16T22:35:53.756Z,82.12
2022-12-16T22:46:14.003Z,82.30
2022-12-16T22:56:32.969Z,82.30
2022-12-16T23:06:51.878Z,82.43
2022-12-16T23:17:11.148Z,82.51
2022-12-16T23:27:30.037Z,82.53
2022-12-16T23:37:48.108Z,82.68
2022-12-16T23:48:06.855Z,82.69
2022-12-16T23:58:25.072Z,82.81
